sensor_id;sensor_type;location;lat;lon;timestamp;P1;durP1;ratioP1;P2;durP2;ratioP2
60964;SDS011;46834;51.100;6.886;2022-12-22T00:00:02;2.80;;;1.42;;
60964;SDS011;46834;51.100;6.886;2022-12-22T00:02:48;2.50;;;1.70;;
60964;SDS011;46834;51.100;6.886;2022-12-22T00:05:32;3.03;;;1.60;;
60964;SDS011;46834;51.100;6.886;2022-12-22T00:08:16;1.50;;;1.40;;
60964;SDS011;46834;51.100;6.886;2022-12-22T00:11:00;2.08;;;1.50;;
60964;SDS011;46834;51.100;6.886;2022-12-22T00:13:44;2.53;;;1.85;;
60964;SDS011;46834;51.100;6.886;2022-12-22T00:16:33;2.05;;;1.42;;
60964;SDS011;46834;51.100;6.886;2022-12-22T00:19:20;1.98;;;1.65;;
60964;SDS011;46834;51.100;6.886;2022-12-22T00:22:15;2.15;;;1.50;;
60964;SDS011;46834;51.100;6.886;2022-12-22T00:25:04;2.88;;;1.77;;
60964;SDS011;46834;51.100;6.886;2022-12-22T00:27:49;5.40;;;1.80;;
60964;SDS011;46834;51.100;6.886;2022-12-22T00:30:35;2.25;;;1.50;;
60964;SDS011;46834;51.100;6.886;2022-12-22T00:33:20;2.40;;;1.35;;
60964;SDS011;46834;51.100;6.886;2022-12-22T00:36:05;1.45;;;1.35;;
60964;SDS011;46834;51.100;6.886;2022-12-22T00:38:54;2.00;;;1.60;;
60964;SDS011;46834;51.100;6.886;2022-12-22T00:41:38;1.50;;;1.40;;
60964;SDS011;46834;51.100;6.886;2022-12-22T00:44:23;2.53;;;1.70;;
60964;SDS011;46834;51.100;6.886;2022-12-22T00:47:16;2.03;;;1.60;;
60964;SDS011;46834;51.100;6.886;2022-12-22T00:50:10;2.95;;;1.65;;
60964;SDS011;46834;51.100;6.886;2022-12-22T00:52:55;2.45;;;1.90;;
60964;SDS011;46834;51.100;6.886;2022-12-22T00:55:41;4.15;;;1.83;;
60964;SDS011;46834;51.100;6.886;2022-12-22T00:58:25;2.40;;;1.80;;
60964;SDS011;46834;51.100;6.886;2022-12-22T01:01:10;3.25;;;1.73;;
60964;SDS011;46834;51.100;6.886;2022-12-22T01:03:55;3.25;;;2.00;;
60964;SDS011;46834;51.100;6.886;2022-12-22T01:06:39;1.75;;;1.55;;
60964;SDS011;46834;51.100;6.886;2022-12-22T01:09:25;2.63;;;1.50;;
60964;SDS011;46834;51.100;6.886;2022-12-22T01:12:12;1.40;;;1.30;;
60964;SDS011;46834;51.100;6.886;2022-12-22T01:15:11;1.50;;;1.15;;
60964;SDS011;46834;51.100;6.886;2022-12-22T01:18:01;2.55;;;1.40;;
60964;SDS011;46834;51.100;6.886;2022-12-22T01:20:47;2.10;;;1.20;;
60964;SDS011;46834;51.100;6.886;2022-12-22T01:23:32;2.20;;;1.40;;
60964;SDS011;46834;51.100;6.886;2022-12-22T01:26:16;1.98;;;1.38;;
60964;SDS011;46834;51.100;6.886;2022-12-22T01:29:02;1.15;;;1.05;;
60964;SDS011;46834;51.100;6.886;2022-12-22T01:31:46;1.30;;;1.20;;
60964;SDS011;46834;51.100;6.886;2022-12-22T01:34:30;1.92;;;1.30;;
60964;SDS011;46834;51.100;6.886;2022-12-22T01:37:15;1.20;;;1.10;;
60964;SDS011;46834;51.100;6.886;2022-12-22T01:39:59;1.38;;;1.20;;
60964;SDS011;46834;51.100;6.886;2022-12-22T01:42:43;1.40;;;1.10;;
60964;SDS011;46834;51.100;6.886;2022-12-22T01:45:29;3.80;;;1.40;;
60964;SDS011;46834;51.100;6.886;2022-12-22T01:48:18;1.80;;;1.30;;
60964;SDS011;46834;51.100;6.886;2022-12-22T01:51:09;1.20;;;1.10;;
60964;SDS011;46834;51.100;6.886;2022-12-22T01:54:00;1.15;;;0.98;;
60964;SDS011;46834;51.100;6.886;2022-12-22T01:56:44;1.25;;;1.10;;
60964;SDS011;46834;51.100;6.886;2022-12-22T01:59:31;1.35;;;1.08;;
60964;SDS011;46834;51.100;6.886;2022-12-22T02:02:16;1.52;;;1.15;;
60964;SDS011;46834;51.100;6.886;2022-12-22T02:05:04;1.55;;;0.90;;
60964;SDS011;46834;51.100;6.886;2022-12-22T02:11:12;1.80;;;0.90;;
60964;SDS011;46834;51.100;6.886;2022-12-22T02:14:39;1.10;;;1.00;;
60964;SDS011;46834;51.100;6.886;2022-12-22T02:17:38;1.85;;;0.95;;
60964;SDS011;46834;51.100;6.886;2022-12-22T02:20:42;2.15;;;1.00;;
60964;SDS011;46834;51.100;6.886;2022-12-22T02:26:59;0.80;;;0.80;;
60964;SDS011;46834;51.100;6.886;2022-12-22T02:29:49;1.02;;;0.90;;
60964;SDS011;46834;51.100;6.886;2022-12-22T02:32:39;0.75;;;0.73;;
60964;SDS011;46834;51.100;6.886;2022-12-22T02:35:27;1.58;;;0.88;;
60964;SDS011;46834;51.100;6.886;2022-12-22T02:38:37;2.78;;;1.10;;
60964;SDS011;46834;51.100;6.886;2022-12-22T02:41:55;0.80;;;0.75;;
60964;SDS011;46834;51.100;6.886;2022-12-22T02:48:26;1.05;;;0.95;;
60964;SDS011;46834;51.100;6.886;2022-12-22T02:51:29;0.80;;;0.80;;
60964;SDS011;46834;51.100;6.886;2022-12-22T02:54:21;1.20;;;0.70;;
60964;SDS011;46834;51.100;6.886;2022-12-22T02:57:07;0.93;;;0.82;;
60964;SDS011;46834;51.100;6.886;2022-12-22T02:59:52;1.10;;;0.90;;
60964;SDS011;46834;51.100;6.886;2022-12-22T03:02:36;0.90;;;0.80;;
60964;SDS011;46834;51.100;6.886;2022-12-22T03:05:20;0.82;;;0.80;;
60964;SDS011;46834;51.100;6.886;2022-12-22T03:08:04;0.70;;;0.68;;
60964;SDS011;46834;51.100;6.886;2022-12-22T03:10:48;0.95;;;0.80;;
60964;SDS011;46834;51.100;6.886;2022-12-22T03:13:32;0.70;;;0.70;;
60964;SDS011;46834;51.100;6.886;2022-12-22T03:16:16;1.00;;;0.80;;
60964;SDS011;46834;51.100;6.886;2022-12-22T03:19:00;0.77;;;0.60;;
60964;SDS011;46834;51.100;6.886;2022-12-22T03:21:44;1.88;;;0.80;;
60964;SDS011;46834;51.100;6.886;2022-12-22T03:24:28;0.60;;;0.60;;
60964;SDS011;46834;51.100;6.886;2022-12-22T03:27:12;1.25;;;1.00;;
60964;SDS011;46834;51.100;6.886;2022-12-22T03:29:38;0.85;;;0.70;;
60964;SDS011;46834;51.100;6.886;2022-12-22T03:32:04;0.80;;;0.80;;
60964;SDS011;46834;51.100;6.886;2022-12-22T03:34:29;0.80;;;0.60;;
60964;SDS011;46834;51.100;6.886;2022-12-22T03:36:55;0.60;;;0.60;;
60964;SDS011;46834;51.100;6.886;2022-12-22T03:39:21;0.73;;;0.68;;
60964;SDS011;46834;51.100;6.886;2022-12-22T03:41:46;0.70;;;0.70;;
60964;SDS011;46834;51.100;6.886;2022-12-22T03:44:31;1.75;;;0.80;;
60964;SDS011;46834;51.100;6.886;2022-12-22T03:47:15;0.90;;;0.68;;
60964;SDS011;46834;51.100;6.886;2022-12-22T03:49:40;0.80;;;0.68;;
60964;SDS011;46834;51.100;6.886;2022-12-22T03:52:06;1.33;;;0.70;;
60964;SDS011;46834;51.100;6.886;2022-12-22T03:54:31;0.80;;;0.70;;
60964;SDS011;46834;51.100;6.886;2022-12-22T03:56:57;0.60;;;0.60;;
60964;SDS011;46834;51.100;6.886;2022-12-22T03:59:23;0.65;;;0.65;;
60964;SDS011;46834;51.100;6.886;2022-12-22T04:01:50;1.88;;;0.70;;
60964;SDS011;46834;51.100;6.886;2022-12-22T04:04:18;1.05;;;0.50;;
60964;SDS011;46834;51.100;6.886;2022-12-22T04:06:46;0.77;;;0.60;;
60964;SDS011;46834;51.100;6.886;2022-12-22T04:09:12;0.50;;;0.50;;
60964;SDS011;46834;51.100;6.886;2022-12-22T04:11:38;0.88;;;0.60;;
60964;SDS011;46834;51.100;6.886;2022-12-22T04:14:22;0.90;;;0.70;;
60964;SDS011;46834;51.100;6.886;2022-12-22T04:16:48;0.57;;;0.57;;
60964;SDS011;46834;51.100;6.886;2022-12-22T04:19:14;0.90;;;0.73;;
60964;SDS011;46834;51.100;6.886;2022-12-22T04:21:40;1.20;;;0.80;;
60964;SDS011;46834;51.100;6.886;2022-12-22T04:24:07;1.83;;;0.70;;
60964;SDS011;46834;51.100;6.886;2022-12-22T04:26:33;1.55;;;0.70;;
60964;SDS011;46834;51.100;6.886;2022-12-22T04:28:59;1.15;;;0.60;;
60964;SDS011;46834;51.100;6.886;2022-12-22T04:31:25;0.65;;;0.65;;
60964;SDS011;46834;51.100;6.886;2022-12-22T04:33:50;0.63;;;0.60;;
60964;SDS011;46834;51.100;6.886;2022-12-22T04:36:16;1.45;;;0.70;;
60964;SDS011;46834;51.100;6.886;2022-12-22T04:38:42;0.80;;;0.73;;
60964;SDS011;46834;51.100;6.886;2022-12-22T04:41:08;1.05;;;0.70;;
60964;SDS011;46834;51.100;6.886;2022-12-22T04:43:35;1.30;;;0.60;;
60964;SDS011;46834;51.100;6.886;2022-12-22T04:46:01;1.55;;;0.82;;
60964;SDS011;46834;51.100;6.886;2022-12-22T04:48:27;0.75;;;0.70;;
60964;SDS011;46834;51.100;6.886;2022-12-22T04:50:55;1.50;;;0.90;;
60964;SDS011;46834;51.100;6.886;2022-12-22T04:53:24;1.58;;;0.70;;
60964;SDS011;46834;51.100;6.886;2022-12-22T04:55:59;1.52;;;0.90;;
60964;SDS011;46834;51.100;6.886;2022-12-22T04:58:28;1.35;;;0.90;;
60964;SDS011;46834;51.100;6.886;2022-12-22T05:00:55;1.30;;;0.90;;
60964;SDS011;46834;51.100;6.886;2022-12-22T05:03:21;1.77;;;0.82;;
60964;SDS011;46834;51.100;6.886;2022-12-22T05:05:47;1.17;;;1.05;;
60964;SDS011;46834;51.100;6.886;2022-12-22T05:08:13;1.25;;;1.00;;
60964;SDS011;46834;51.100;6.886;2022-12-22T05:10:39;1.20;;;1.10;;
60964;SDS011;46834;51.100;6.886;2022-12-22T05:13:05;1.50;;;1.40;;
60964;SDS011;46834;51.100;6.886;2022-12-22T05:15:32;1.58;;;1.35;;
60964;SDS011;46834;51.100;6.886;2022-12-22T05:17:59;1.58;;;1.23;;
60964;SDS011;46834;51.100;6.886;2022-12-22T05:20:26;1.52;;;1.35;;
60964;SDS011;46834;51.100;6.886;2022-12-22T05:22:52;1.67;;;1.30;;
60964;SDS011;46834;51.100;6.886;2022-12-22T05:25:19;1.85;;;1.50;;
60964;SDS011;46834;51.100;6.886;2022-12-22T05:27:46;2.70;;;1.50;;
60964;SDS011;46834;51.100;6.886;2022-12-22T05:30:14;1.95;;;1.50;;
60964;SDS011;46834;51.100;6.886;2022-12-22T05:32:42;1.45;;;1.30;;
60964;SDS011;46834;51.100;6.886;2022-12-22T05:35:07;3.33;;;1.40;;
60964;SDS011;46834;51.100;6.886;2022-12-22T05:37:34;1.40;;;1.30;;
60964;SDS011;46834;51.100;6.886;2022-12-22T05:39:59;1.92;;;1.50;;
60964;SDS011;46834;51.100;6.886;2022-12-22T05:42:25;1.70;;;1.60;;
60964;SDS011;46834;51.100;6.886;2022-12-22T05:47:32;1.50;;;1.40;;
60964;SDS011;46834;51.100;6.886;2022-12-22T05:49:58;1.50;;;1.40;;
60964;SDS011;46834;51.100;6.886;2022-12-22T05:52:24;1.90;;;1.50;;
60964;SDS011;46834;51.100;6.886;2022-12-22T05:54:49;1.60;;;1.50;;
60964;SDS011;46834;51.100;6.886;2022-12-22T05:57:15;1.60;;;1.50;;
60964;SDS011;46834;51.100;6.886;2022-12-22T05:59:41;1.90;;;1.70;;
60964;SDS011;46834;51.100;6.886;2022-12-22T06:02:06;2.17;;;1.90;;
60964;SDS011;46834;51.100;6.886;2022-12-22T06:04:32;3.30;;;2.10;;
60964;SDS011;46834;51.100;6.886;2022-12-22T06:06:58;3.25;;;1.80;;
60964;SDS011;46834;51.100;6.886;2022-12-22T06:09:23;2.20;;;2.00;;
60964;SDS011;46834;51.100;6.886;2022-12-22T06:11:49;2.40;;;1.75;;
60964;SDS011;46834;51.100;6.886;2022-12-22T06:14:15;2.05;;;1.60;;
60964;SDS011;46834;51.100;6.886;2022-12-22T06:16:40;2.13;;;1.80;;
60964;SDS011;46834;51.100;6.886;2022-12-22T06:19:06;1.98;;;1.77;;
60964;SDS011;46834;51.100;6.886;2022-12-22T06:21:31;3.40;;;1.90;;
60964;SDS011;46834;51.100;6.886;2022-12-22T06:23:57;1.88;;;1.67;;
60964;SDS011;46834;51.100;6.886;2022-12-22T06:26:23;1.77;;;1.67;;
60964;SDS011;46834;51.100;6.886;2022-12-22T06:28:49;1.40;;;1.30;;
60964;SDS011;46834;51.100;6.886;2022-12-22T06:31:14;2.00;;;1.48;;
60964;SDS011;46834;51.100;6.886;2022-12-22T06:33:40;1.73;;;1.48;;
60964;SDS011;46834;51.100;6.886;2022-12-22T06:36:06;1.55;;;1.35;;
60964;SDS011;46834;51.100;6.886;2022-12-22T06:38:33;1.60;;;1.17;;
60964;SDS011;46834;51.100;6.886;2022-12-22T06:40:59;1.38;;;1.27;;
60964;SDS011;46834;51.100;6.886;2022-12-22T06:43:25;2.40;;;1.75;;
60964;SDS011;46834;51.100;6.886;2022-12-22T06:45:51;1.70;;;1.60;;
60964;SDS011;46834;51.100;6.886;2022-12-22T06:48:17;2.30;;;1.45;;
60964;SDS011;46834;51.100;6.886;2022-12-22T06:50:43;2.17;;;1.70;;
60964;SDS011;46834;51.100;6.886;2022-12-22T06:53:09;2.88;;;1.88;;
60964;SDS011;46834;51.100;6.886;2022-12-22T06:55:36;3.22;;;1.85;;
60964;SDS011;46834;51.100;6.886;2022-12-22T06:58:02;2.38;;;1.92;;
60964;SDS011;46834;51.100;6.886;2022-12-22T07:00:29;3.65;;;2.53;;
60964;SDS011;46834;51.100;6.886;2022-12-22T07:02:55;3.15;;;2.42;;
60964;SDS011;46834;51.100;6.886;2022-12-22T07:05:21;3.33;;;2.33;;
60964;SDS011;46834;51.100;6.886;2022-12-22T07:07:48;2.10;;;1.90;;
60964;SDS011;46834;51.100;6.886;2022-12-22T07:10:14;2.53;;;2.33;;
60964;SDS011;46834;51.100;6.886;2022-12-22T07:12:40;2.60;;;1.90;;
60964;SDS011;46834;51.100;6.886;2022-12-22T07:15:06;2.65;;;2.20;;
60964;SDS011;46834;51.100;6.886;2022-12-22T07:17:33;2.72;;;2.00;;
60964;SDS011;46834;51.100;6.886;2022-12-22T07:19:59;2.47;;;2.03;;
60964;SDS011;46834;51.100;6.886;2022-12-22T07:22:25;2.40;;;2.20;;
60964;SDS011;46834;51.100;6.886;2022-12-22T07:24:51;3.47;;;2.10;;
60964;SDS011;46834;51.100;6.886;2022-12-22T07:27:16;2.83;;;2.05;;
60964;SDS011;46834;51.100;6.886;2022-12-22T07:29:42;2.60;;;2.25;;
60964;SDS011;46834;51.100;6.886;2022-12-22T07:32:08;2.38;;;2.17;;
60964;SDS011;46834;51.100;6.886;2022-12-22T07:34:33;2.35;;;1.70;;
60964;SDS011;46834;51.100;6.886;2022-12-22T07:36:59;1.70;;;1.60;;
60964;SDS011;46834;51.100;6.886;2022-12-22T07:39:25;5.20;;;2.00;;
60964;SDS011;46834;51.100;6.886;2022-12-22T07:41:50;1.83;;;1.73;;
60964;SDS011;46834;51.100;6.886;2022-12-22T07:44:35;3.22;;;1.80;;
60964;SDS011;46834;51.100;6.886;2022-12-22T07:47:00;2.40;;;2.03;;
60964;SDS011;46834;51.100;6.886;2022-12-22T07:49:26;2.05;;;1.85;;
60964;SDS011;46834;51.100;6.886;2022-12-22T07:52:10;3.38;;;1.80;;
60964;SDS011;46834;51.100;6.886;2022-12-22T07:54:36;1.70;;;1.60;;
60964;SDS011;46834;51.100;6.886;2022-12-22T07:57:02;2.15;;;1.95;;
60964;SDS011;46834;51.100;6.886;2022-12-22T07:59:27;2.08;;;1.67;;
60964;SDS011;46834;51.100;6.886;2022-12-22T08:01:53;3.28;;;1.55;;
60964;SDS011;46834;51.100;6.886;2022-12-22T08:04:19;4.55;;;2.13;;
60964;SDS011;46834;51.100;6.886;2022-12-22T08:06:46;3.38;;;2.72;;
60964;SDS011;46834;51.100;6.886;2022-12-22T08:09:16;3.67;;;2.65;;
60964;SDS011;46834;51.100;6.886;2022-12-22T08:11:45;4.10;;;3.25;;
60964;SDS011;46834;51.100;6.886;2022-12-22T08:14:13;4.25;;;2.90;;
60964;SDS011;46834;51.100;6.886;2022-12-22T08:16:38;3.17;;;2.75;;
60964;SDS011;46834;51.100;6.886;2022-12-22T08:19:04;4.78;;;3.05;;
60964;SDS011;46834;51.100;6.886;2022-12-22T08:21:30;4.82;;;3.28;;
60964;SDS011;46834;51.100;6.886;2022-12-22T08:23:55;4.55;;;3.40;;
60964;SDS011;46834;51.100;6.886;2022-12-22T08:26:25;3.75;;;3.20;;
60964;SDS011;46834;51.100;6.886;2022-12-22T08:29:06;3.38;;;3.03;;
60964;SDS011;46834;51.100;6.886;2022-12-22T08:31:39;4.60;;;3.35;;
60964;SDS011;46834;51.100;6.886;2022-12-22T08:34:06;4.78;;;4.05;;
60964;SDS011;46834;51.100;6.886;2022-12-22T08:36:37;5.38;;;4.20;;
60964;SDS011;46834;51.100;6.886;2022-12-22T08:39:08;5.00;;;4.47;;
60964;SDS011;46834;51.100;6.886;2022-12-22T08:41:34;5.45;;;4.43;;
60964;SDS011;46834;51.100;6.886;2022-12-22T08:44:20;6.00;;;4.63;;
60964;SDS011;46834;51.100;6.886;2022-12-22T08:46:49;6.97;;;5.10;;
60964;SDS011;46834;51.100;6.886;2022-12-22T08:49:16;7.10;;;5.07;;
60964;SDS011;46834;51.100;6.886;2022-12-22T08:51:43;7.35;;;4.85;;
60964;SDS011;46834;51.100;6.886;2022-12-22T08:54:09;7.05;;;5.10;;
60964;SDS011;46834;51.100;6.886;2022-12-22T08:56:35;7.72;;;5.18;;
60964;SDS011;46834;51.100;6.886;2022-12-22T08:59:01;7.57;;;5.53;;
60964;SDS011;46834;51.100;6.886;2022-12-22T09:01:30;6.00;;;5.20;;
60964;SDS011;46834;51.100;6.886;2022-12-22T09:03:57;7.28;;;5.50;;
60964;SDS011;46834;51.100;6.886;2022-12-22T09:06:24;8.27;;;5.45;;
60964;SDS011;46834;51.100;6.886;2022-12-22T09:08:53;8.40;;;6.10;;
60964;SDS011;46834;51.100;6.886;2022-12-22T09:11:21;7.00;;;5.70;;
60964;SDS011;46834;51.100;6.886;2022-12-22T09:13:52;8.15;;;6.15;;
60964;SDS011;46834;51.100;6.886;2022-12-22T09:16:20;8.45;;;6.28;;
60964;SDS011;46834;51.100;6.886;2022-12-22T09:18:47;10.63;;;7.22;;
60964;SDS011;46834;51.100;6.886;2022-12-22T09:21:13;9.60;;;6.85;;
60964;SDS011;46834;51.100;6.886;2022-12-22T09:23:40;10.52;;;6.93;;
60964;SDS011;46834;51.100;6.886;2022-12-22T09:26:07;9.88;;;7.55;;
60964;SDS011;46834;51.100;6.886;2022-12-22T09:28:39;10.80;;;7.47;;
60964;SDS011;46834;51.100;6.886;2022-12-22T09:31:06;9.75;;;6.93;;
60964;SDS011;46834;51.100;6.886;2022-12-22T09:33:32;9.82;;;7.43;;
60964;SDS011;46834;51.100;6.886;2022-12-22T09:36:03;8.80;;;6.53;;
60964;SDS011;46834;51.100;6.886;2022-12-22T09:38:40;10.30;;;6.70;;
60964;SDS011;46834;51.100;6.886;2022-12-22T09:41:08;7.82;;;6.50;;
60964;SDS011;46834;51.100;6.886;2022-12-22T09:43:40;7.90;;;6.20;;
60964;SDS011;46834;51.100;6.886;2022-12-22T09:48:46;8.02;;;6.63;;
60964;SDS011;46834;51.100;6.886;2022-12-22T09:51:12;6.97;;;5.60;;
60964;SDS011;46834;51.100;6.886;2022-12-22T09:53:39;6.70;;;5.63;;
60964;SDS011;46834;51.100;6.886;2022-12-22T09:56:11;6.97;;;5.80;;
60964;SDS011;46834;51.100;6.886;2022-12-22T09:58:40;8.40;;;5.75;;
60964;SDS011;46834;51.100;6.886;2022-12-22T10:01:19;8.50;;;6.32;;
60964;SDS011;46834;51.100;6.886;2022-12-22T10:04:54;7.30;;;5.65;;
60964;SDS011;46834;51.100;6.886;2022-12-22T10:07:39;6.55;;;5.35;;
60964;SDS011;46834;51.100;6.886;2022-12-22T10:12:49;7.20;;;5.10;;
60964;SDS011;46834;51.100;6.886;2022-12-22T10:15:27;6.72;;;5.65;;
60964;SDS011;46834;51.100;6.886;2022-12-22T10:18:12;7.10;;;5.90;;
60964;SDS011;46834;51.100;6.886;2022-12-22T10:20:45;7.82;;;6.00;;
60964;SDS011;46834;51.100;6.886;2022-12-22T10:23:41;7.40;;;5.65;;
60964;SDS011;46834;51.100;6.886;2022-12-22T10:26:23;7.28;;;6.03;;
60964;SDS011;46834;51.100;6.886;2022-12-22T10:28:54;7.53;;;5.53;;
60964;SDS011;46834;51.100;6.886;2022-12-22T10:31:31;6.30;;;5.53;;
60964;SDS011;46834;51.100;6.886;2022-12-22T10:34:10;8.70;;;7.13;;
60964;SDS011;46834;51.100;6.886;2022-12-22T10:36:45;8.45;;;6.15;;
60964;SDS011;46834;51.100;6.886;2022-12-22T10:39:24;8.45;;;5.97;;
60964;SDS011;46834;51.100;6.886;2022-12-22T10:41:59;8.35;;;6.15;;
60964;SDS011;46834;51.100;6.886;2022-12-22T10:44:37;7.93;;;6.10;;
60964;SDS011;46834;51.100;6.886;2022-12-22T10:47:10;7.82;;;6.85;;
60964;SDS011;46834;51.100;6.886;2022-12-22T10:49:51;11.95;;;7.53;;
60964;SDS011;46834;51.100;6.886;2022-12-22T10:52:27;9.68;;;6.68;;
60964;SDS011;46834;51.100;6.886;2022-12-22T10:57:42;9.32;;;6.93;;
60964;SDS011;46834;51.100;6.886;2022-12-22T11:00:22;9.65;;;7.65;;
60964;SDS011;46834;51.100;6.886;2022-12-22T11:02:58;10.23;;;7.60;;
60964;SDS011;46834;51.100;6.886;2022-12-22T11:05:26;8.30;;;7.15;;
60964;SDS011;46834;51.100;6.886;2022-12-22T11:07:52;10.02;;;7.50;;
60964;SDS011;46834;51.100;6.886;2022-12-22T11:10:29;9.75;;;7.30;;
60964;SDS011;46834;51.100;6.886;2022-12-22T11:15:56;10.38;;;8.07;;
60964;SDS011;46834;51.100;6.886;2022-12-22T11:18:50;10.13;;;7.63;;
60964;SDS011;46834;51.100;6.886;2022-12-22T11:21:41;10.02;;;7.40;;
60964;SDS011;46834;51.100;6.886;2022-12-22T11:27:33;11.13;;;8.05;;
60964;SDS011;46834;51.100;6.886;2022-12-22T11:30:32;10.50;;;7.45;;
60964;SDS011;46834;51.100;6.886;2022-12-22T11:36:46;10.10;;;6.88;;
60964;SDS011;46834;51.100;6.886;2022-12-22T11:43:20;10.10;;;7.20;;
60964;SDS011;46834;51.100;6.886;2022-12-22T12:00:09;8.68;;;6.70;;
60964;SDS011;46834;51.100;6.886;2022-12-22T12:06:00;8.70;;;6.18;;
60964;SDS011;46834;51.100;6.886;2022-12-22T12:08:56;9.38;;;6.43;;
60964;SDS011;46834;51.100;6.886;2022-12-22T12:11:41;8.80;;;5.80;;
60964;SDS011;46834;51.100;6.886;2022-12-22T12:14:43;6.70;;;5.25;;
60964;SDS011;46834;51.100;6.886;2022-12-22T12:22:42;7.93;;;6.05;;
60964;SDS011;46834;51.100;6.886;2022-12-22T12:28:25;12.00;;;7.70;;
60964;SDS011;46834;51.100;6.886;2022-12-22T12:31:30;9.95;;;6.22;;
60964;SDS011;46834;51.100;6.886;2022-12-22T12:34:04;8.32;;;5.97;;
60964;SDS011;46834;51.100;6.886;2022-12-22T12:36:51;9.45;;;6.57;;
60964;SDS011;46834;51.100;6.886;2022-12-22T12:42:14;7.38;;;5.50;;
60964;SDS011;46834;51.100;6.886;2022-12-22T12:50:49;6.78;;;4.90;;
60964;SDS011;46834;51.100;6.886;2022-12-22T12:53:16;8.00;;;4.70;;
60964;SDS011;46834;51.100;6.886;2022-12-22T13:01:02;5.38;;;3.90;;
60964;SDS011;46834;51.100;6.886;2022-12-22T13:03:48;5.32;;;3.97;;
60964;SDS011;46834;51.100;6.886;2022-12-22T13:09:15;10.55;;;6.22;;
60964;SDS011;46834;51.100;6.886;2022-12-22T13:11:44;9.90;;;5.35;;
60964;SDS011;46834;51.100;6.886;2022-12-22T13:14:10;6.38;;;4.13;;
60964;SDS011;46834;51.100;6.886;2022-12-22T13:20:02;6.35;;;3.90;;
60964;SDS011;46834;51.100;6.886;2022-12-22T13:22:30;6.95;;;3.95;;
60964;SDS011;46834;51.100;6.886;2022-12-22T13:24:57;5.60;;;3.88;;
60964;SDS011;46834;51.100;6.886;2022-12-22T13:27:26;5.60;;;4.10;;
60964;SDS011;46834;51.100;6.886;2022-12-22T13:29:54;5.50;;;4.00;;
60964;SDS011;46834;51.100;6.886;2022-12-22T13:32:24;6.63;;;3.95;;
60964;SDS011;46834;51.100;6.886;2022-12-22T13:35:05;11.38;;;3.78;;
60964;SDS011;46834;51.100;6.886;2022-12-22T13:37:58;5.03;;;3.58;;
60964;SDS011;46834;51.100;6.886;2022-12-22T13:40:26;6.78;;;4.13;;
60964;SDS011;46834;51.100;6.886;2022-12-22T13:43:06;6.05;;;4.18;;
60964;SDS011;46834;51.100;6.886;2022-12-22T13:45:50;6.68;;;4.35;;
60964;SDS011;46834;51.100;6.886;2022-12-22T13:51:05;5.57;;;3.75;;
60964;SDS011;46834;51.100;6.886;2022-12-22T13:53:42;7.63;;;3.58;;
60964;SDS011;46834;51.100;6.886;2022-12-22T13:56:13;6.75;;;4.15;;
60964;SDS011;46834;51.100;6.886;2022-12-22T13:58:57;6.88;;;3.80;;
60964;SDS011;46834;51.100;6.886;2022-12-22T14:01:26;5.75;;;3.88;;
60964;SDS011;46834;51.100;6.886;2022-12-22T14:03:53;5.25;;;3.92;;
60964;SDS011;46834;51.100;6.886;2022-12-22T14:06:35;6.93;;;3.90;;
60964;SDS011;46834;51.100;6.886;2022-12-22T14:11:50;7.03;;;3.97;;
60964;SDS011;46834;51.100;6.886;2022-12-22T14:14:26;5.78;;;4.07;;
60964;SDS011;46834;51.100;6.886;2022-12-22T14:16:58;5.03;;;3.70;;
60964;SDS011;46834;51.100;6.886;2022-12-22T14:19:25;6.10;;;4.45;;
60964;SDS011;46834;51.100;6.886;2022-12-22T14:22:17;6.03;;;4.47;;
60964;SDS011;46834;51.100;6.886;2022-12-22T14:24:48;4.72;;;3.58;;
60964;SDS011;46834;51.100;6.886;2022-12-22T14:30:05;4.82;;;3.75;;
60964;SDS011;46834;51.100;6.886;2022-12-22T14:32:42;5.85;;;4.18;;
60964;SDS011;46834;51.100;6.886;2022-12-22T14:37:53;5.47;;;3.50;;
60964;SDS011;46834;51.100;6.886;2022-12-22T14:40:43;4.20;;;3.10;;
60964;SDS011;46834;51.100;6.886;2022-12-22T14:45:40;9.68;;;5.28;;
60964;SDS011;46834;51.100;6.886;2022-12-22T14:48:07;7.90;;;4.85;;
60964;SDS011;46834;51.100;6.886;2022-12-22T14:50:45;6.30;;;4.47;;
60964;SDS011;46834;51.100;6.886;2022-12-22T14:53:14;5.60;;;3.85;;
60964;SDS011;46834;51.100;6.886;2022-12-22T14:55:48;5.45;;;3.30;;
60964;SDS011;46834;51.100;6.886;2022-12-22T14:58:19;3.33;;;2.92;;
60964;SDS011;46834;51.100;6.886;2022-12-22T15:06:44;7.43;;;3.72;;
60964;SDS011;46834;51.100;6.886;2022-12-22T15:12:01;6.22;;;4.63;;
60964;SDS011;46834;51.100;6.886;2022-12-22T15:14:33;6.10;;;4.63;;
60964;SDS011;46834;51.100;6.886;2022-12-22T15:17:01;7.45;;;4.82;;
60964;SDS011;46834;51.100;6.886;2022-12-22T15:19:29;7.18;;;5.03;;
60964;SDS011;46834;51.100;6.886;2022-12-22T15:21:58;8.55;;;5.65;;
60964;SDS011;46834;51.100;6.886;2022-12-22T15:24:24;10.88;;;6.93;;
60964;SDS011;46834;51.100;6.886;2022-12-22T15:26:50;11.32;;;6.50;;
60964;SDS011;46834;51.100;6.886;2022-12-22T15:29:16;10.05;;;6.78;;
60964;SDS011;46834;51.100;6.886;2022-12-22T15:31:42;8.93;;;6.03;;
60964;SDS011;46834;51.100;6.886;2022-12-22T15:34:10;8.73;;;5.75;;
60964;SDS011;46834;51.100;6.886;2022-12-22T15:36:55;7.70;;;5.22;;
60964;SDS011;46834;51.100;6.886;2022-12-22T15:39:21;9.02;;;5.75;;
60964;SDS011;46834;51.100;6.886;2022-12-22T15:41:48;8.52;;;5.18;;
60964;SDS011;46834;51.100;6.886;2022-12-22T15:44:14;6.88;;;5.00;;
60964;SDS011;46834;51.100;6.886;2022-12-22T15:46:41;6.75;;;4.40;;
60964;SDS011;46834;51.100;6.886;2022-12-22T15:49:17;11.02;;;4.63;;
60964;SDS011;46834;51.100;6.886;2022-12-22T15:51:47;4.57;;;3.88;;
60964;SDS011;46834;51.100;6.886;2022-12-22T15:54:19;7.55;;;3.63;;
60964;SDS011;46834;51.100;6.886;2022-12-22T15:56:45;4.80;;;3.72;;
60964;SDS011;46834;51.100;6.886;2022-12-22T15:59:14;4.43;;;3.38;;
60964;SDS011;46834;51.100;6.886;2022-12-22T16:01:44;4.13;;;3.40;;
60964;SDS011;46834;51.100;6.886;2022-12-22T16:04:09;4.25;;;3.08;;
60964;SDS011;46834;51.100;6.886;2022-12-22T16:06:35;5.45;;;3.38;;
60964;SDS011;46834;51.100;6.886;2022-12-22T16:09:01;4.70;;;3.15;;
60964;SDS011;46834;51.100;6.886;2022-12-22T16:11:37;4.00;;;2.88;;
60964;SDS011;46834;51.100;6.886;2022-12-22T16:14:03;3.28;;;2.65;;
60964;SDS011;46834;51.100;6.886;2022-12-22T16:16:30;5.75;;;3.60;;
60964;SDS011;46834;51.100;6.886;2022-12-22T16:18:55;4.95;;;3.35;;
60964;SDS011;46834;51.100;6.886;2022-12-22T16:21:22;2.92;;;2.53;;
60964;SDS011;46834;51.100;6.886;2022-12-22T16:23:55;3.85;;;3.13;;
60964;SDS011;46834;51.100;6.886;2022-12-22T16:26:22;3.80;;;2.90;;
60964;SDS011;46834;51.100;6.886;2022-12-22T16:28:48;3.33;;;2.90;;
60964;SDS011;46834;51.100;6.886;2022-12-22T16:31:18;4.88;;;3.28;;
60964;SDS011;46834;51.100;6.886;2022-12-22T16:33:48;4.47;;;3.28;;
60964;SDS011;46834;51.100;6.886;2022-12-22T16:36:15;3.67;;;3.00;;
60964;SDS011;46834;51.100;6.886;2022-12-22T16:38:42;4.70;;;3.47;;
60964;SDS011;46834;51.100;6.886;2022-12-22T16:41:22;4.97;;;3.75;;
60964;SDS011;46834;51.100;6.886;2022-12-22T16:43:50;5.65;;;3.90;;
60964;SDS011;46834;51.100;6.886;2022-12-22T16:46:20;4.97;;;3.50;;
60964;SDS011;46834;51.100;6.886;2022-12-22T16:48:48;4.95;;;4.00;;
60964;SDS011;46834;51.100;6.886;2022-12-22T16:51:27;6.38;;;4.22;;
60964;SDS011;46834;51.100;6.886;2022-12-22T16:54:01;5.47;;;4.18;;
60964;SDS011;46834;51.100;6.886;2022-12-22T16:56:28;6.93;;;4.82;;
60964;SDS011;46834;51.100;6.886;2022-12-22T16:58:55;5.85;;;4.07;;
60964;SDS011;46834;51.100;6.886;2022-12-22T17:01:35;6.90;;;5.22;;
60964;SDS011;46834;51.100;6.886;2022-12-22T17:04:09;6.88;;;4.80;;
60964;SDS011;46834;51.100;6.886;2022-12-22T17:06:42;5.15;;;3.90;;
60964;SDS011;46834;51.100;6.886;2022-12-22T17:09:14;5.93;;;4.53;;
60964;SDS011;46834;51.100;6.886;2022-12-22T17:11:56;5.78;;;4.38;;